createdAt,value
2018-09-10T00:00:41.874Z,0.00
2018-09-10T00:01:41.893Z,0.00
2018-09-10T00:02:41.914Z,0.00
2018-09-10T00:03:41.932Z,0.00
2018-09-10T00:04:41.952Z,0.00
2018-09-10T00:05:41.968Z,0.00
2018-09-10T00:06:41.994Z,0.00
2018-09-10T00:07:42.009Z,0.00
2018-09-10T00:08:42.025Z,0.00
2018-09-10T00:09:42.047Z,0.00
2018-09-10T00:10:42.064Z,0.00
2018-09-10T00:11:42.083Z,0.00
2018-09-10T00:12:42.100Z,0.00
2018-09-10T00:13:42.122Z,0.00
2018-09-10T00:14:42.140Z,0.00
2018-09-10T00:15:42.159Z,0.00
2018-09-10T00:16:42.176Z,0.00
2018-09-10T00:17:42.194Z,0.00
2018-09-10T00:18:42.217Z,0.00
2018-09-10T00:19:42.234Z,0.00
2018-09-10T00:20:42.254Z,0.00
2018-09-10T00:21:42.271Z,0.00
2018-09-10T00:22:42.288Z,0.00
2018-09-10T00:23:42.307Z,0.00
2018-09-10T00:24:42.324Z,0.00
2018-09-10T00:25:42.345Z,0.00
2018-09-10T00:26:42.362Z,0.00
2018-09-10T00:27:42.382Z,0.00
2018-09-10T00:28:42.403Z,0.00
2018-09-10T00:29:42.418Z,0.00
2018-09-10T00:30:42.439Z,0.00
2018-09-10T00:31:42.458Z,0.00
2018-09-10T00:32:42.474Z,0.00
2018-09-10T00:33:42.498Z,0.00
2018-09-10T00:34:42.512Z,0.00
2018-09-10T00:35:42.531Z,0.00
2018-09-10T00:36:42.550Z,0.00
2018-09-10T00:37:42.568Z,0.00
2018-09-10T00:38:42.587Z,0.00
2018-09-10T00:39:42.604Z,0.00
2018-09-10T00:40:42.625Z,0.00
2018-09-10T00:41:42.642Z,0.00
2018-09-10T00:42:42.663Z,0.00
2018-09-10T00:43:42.678Z,0.00
2018-09-10T00:44:42.696Z,0.00
2018-09-10T00:45:42.717Z,0.00
2018-09-10T00:46:42.735Z,0.00
2018-09-10T00:47:42.755Z,0.00
2018-09-10T00:48:42.772Z,0.00
2018-09-10T00:49:42.791Z,0.00
2018-09-10T00:50:42.809Z,0.00
2018-09-10T00:51:42.825Z,0.00
2018-09-10T00:52:42.844Z,0.00
2018-09-10T00:53:42.862Z,0.00
2018-09-10T00:54:42.881Z,0.00
2018-09-10T00:55:42.900Z,0.00
2018-09-10T00:56:42.918Z,0.00
2018-09-10T00:57:42.938Z,0.00
2018-09-10T00:58:42.955Z,0.00
2018-09-10T00:59:42.974Z,0.00
2018-09-10T01:00:42.992Z,0.00
2018-09-10T01:01:43.015Z,0.00
2018-09-10T01:02:43.028Z,0.00
2018-09-10T01:03:43.049Z,0.00
2018-09-10T01:04:43.066Z,0.00
2018-09-10T01:05:43.085Z,0.00
2018-09-10T01:06:43.102Z,0.00
2018-09-10T01:07:43.124Z,0.00
2018-09-10T01:08:43.139Z,0.00
2018-09-10T01:09:43.158Z,0.00
2018-09-10T01:10:43.175Z,0.00
2018-09-10T01:11:43.195Z,0.00
2018-09-10T01:12:43.211Z,0.00
2018-09-10T01:13:43.229Z,0.00
2018-09-10T01:14:43.249Z,0.00
2018-09-10T01:15:43.266Z,0.00
2018-09-10T01:16:43.285Z,0.00
2018-09-10T01:17:43.306Z,0.00
2018-09-10T01:18:43.323Z,0.00
2018-09-10T01:19:43.340Z,0.00
2018-09-10T01:20:43.361Z,0.00
2018-09-10T01:21:43.377Z,0.00
2018-09-10T01:22:43.397Z,0.00
2018-09-10T01:23:43.420Z,0.00
2018-09-10T01:24:43.433Z,0.00
2018-09-10T01:25:43.453Z,0.00
2018-09-10T01:26:43.469Z,0.00
2018-09-10T01:27:43.488Z,0.00
2018-09-10T01:28:43.508Z,0.00
2018-09-10T01:29:43.525Z,0.00
2018-09-10T01:30:43.541Z,0.00
2018-09-10T01:31:43.564Z,0.00
2018-09-10T01:32:43.580Z,0.00
2018-09-10T01:33:43.601Z,0.00
2018-09-10T01:34:43.619Z,0.00
2018-09-10T01:35:43.637Z,0.00
2018-09-10T01:36:43.654Z,0.00
2018-09-10T01:37:43.673Z,0.00
2018-09-10T01:38:43.690Z,0.00
2018-09-10T01:39:43.714Z,0.00
2018-09-10T01:40:43.727Z,0.00
2018-09-10T01:41:43.745Z,0.00
2018-09-10T01:42:43.763Z,0.00
2018-09-10T01:43:43.782Z,0.00
2018-09-10T01:44:43.799Z,0.00
2018-09-10T01:45:43.817Z,0.00
2018-09-10T01:46:43.837Z,0.00
2018-09-10T01:47:43.856Z,0.00
2018-09-10T01:48:43.872Z,0.00
2018-09-10T01:49:43.894Z,0.00
2018-09-10T01:50:43.910Z,0.00
2018-09-10T01:51:43.928Z,0.00
2018-09-10T01:52:43.945Z,0.00
2018-09-10T01:53:43.964Z,0.00
2018-09-10T01:54:43.982Z,0.00
2018-09-10T01:55:44.001Z,0.00
2018-09-10T01:56:44.017Z,0.00
2018-09-10T01:57:44.039Z,0.00
2018-09-10T01:58:44.055Z,0.00
2018-09-10T01:59:44.074Z,0.00
2018-09-10T02:00:44.089Z,0.00
2018-09-10T02:01:44.112Z,0.00
2018-09-10T02:02:44.129Z,0.00
2018-09-10T02:03:44.147Z,0.00
2018-09-10T02:04:44.163Z,0.00
2018-09-10T02:05:44.224Z,0.00
2018-09-10T02:06:44.201Z,0.00
2018-09-10T02:07:44.218Z,0.00
2018-09-10T02:08:44.234Z,0.00
2018-09-10T02:09:44.254Z,0.00
2018-09-10T02:10:44.272Z,0.00
2018-09-10T02:11:44.291Z,0.00
2018-09-10T02:12:44.305Z,0.00
2018-09-10T02:13:44.326Z,0.00
2018-09-10T02:14:44.343Z,0.00
2018-09-10T02:15:44.362Z,0.00
2018-09-10T02:16:44.380Z,0.00
2018-09-10T02:17:44.397Z,0.00
2018-09-10T02:18:44.417Z,0.00
2018-09-10T02:19:44.435Z,0.00
2018-09-10T02:20:44.452Z,0.00
2018-09-10T02:21:44.472Z,0.00
2018-09-10T02:22:44.489Z,0.00
2018-09-10T02:23:44.717Z,0.00
2018-09-10T02:24:44.524Z,0.00
2018-09-10T02:25:44.545Z,0.00
2018-09-10T02:26:44.562Z,0.00
2018-09-10T02:27:44.635Z,0.00
2018-09-10T02:28:44.598Z,0.00
2018-09-10T02:29:44.615Z,0.00
2018-09-10T02:30:44.634Z,0.00
2018-09-10T02:31:44.653Z,0.00
2018-09-10T02:32:44.673Z,0.00
2018-09-10T02:33:44.688Z,0.00
2018-09-10T02:34:44.706Z,0.00
2018-09-10T02:35:44.725Z,0.00
2018-09-10T02:36:44.745Z,0.00
2018-09-10T02:37:44.759Z,0.00
2018-09-10T02:38:44.777Z,0.00
2018-09-10T02:39:44.796Z,0.00
2018-09-10T02:40:44.813Z,0.00
2018-09-10T02:41:44.837Z,0.00
2018-09-10T02:42:44.851Z,0.00
2018-09-10T02:43:44.868Z,0.00
2018-09-10T02:44:44.887Z,0.00
2018-09-10T02:45:44.903Z,0.00
2018-09-10T02:46:44.925Z,0.00
2018-09-10T02:47:44.942Z,0.00
2018-09-10T02:48:44.959Z,0.00
2018-09-10T02:49:44.978Z,0.00
2018-09-10T02:50:44.997Z,0.00
2018-09-10T02:51:45.013Z,0.00
2018-09-10T02:52:45.030Z,0.00
2018-09-10T02:53:45.048Z,0.00
2018-09-10T02:54:45.072Z,0.00
2018-09-10T02:55:45.086Z,0.00
2018-09-10T02:56:45.102Z,0.00
2018-09-10T02:57:45.122Z,0.00
2018-09-10T02:58:45.142Z,0.00
2018-09-10T02:59:45.156Z,0.00
2018-09-10T03:00:45.176Z,0.00
2018-09-10T03:01:45.193Z,0.00
2018-09-10T03:02:45.211Z,0.00
2018-09-10T03:03:45.229Z,0.00
2018-09-10T03:04:45.245Z,0.00
2018-09-10T03:05:45.264Z,0.00
2018-09-10T03:06:45.281Z,0.00
2018-09-10T03:07:45.302Z,0.00
2018-09-10T03:08:45.317Z,0.00
2018-09-10T03:09:45.338Z,0.00
2018-09-10T03:10:45.353Z,0.00
2018-09-10T03:11:45.374Z,0.00
2018-09-10T03:12:45.390Z,0.00
2018-09-10T03:13:45.410Z,0.00
2018-09-10T03:14:45.425Z,0.00
2018-09-10T03:15:45.443Z,0.00
2018-09-10T03:16:45.460Z,0.00
2018-09-10T03:17:45.521Z,0.00
2018-09-10T03:18:45.497Z,0.00
2018-09-10T03:19:45.517Z,0.00
2018-09-10T03:20:45.532Z,0.00
2018-09-10T03:21:45.554Z,0.00
2018-09-10T03:22:45.568Z,0.00
2018-09-10T03:23:45.588Z,0.00
2018-09-10T03:24:45.604Z,0.00
2018-09-10T03:25:45.623Z,0.00
2018-09-10T03:26:45.642Z,0.00
2018-09-10T03:27:45.659Z,0.00
2018-09-10T03:28:45.680Z,0.00
2018-09-10T03:29:45.695Z,0.00
2018-09-10T03:30:45.712Z,0.00
2018-09-10T03:31:45.736Z,0.00
2018-09-10T03:32:45.747Z,0.00
2018-09-10T03:33:45.791Z,0.00
2018-09-10T03:34:45.782Z,0.00
2018-09-10T03:35:45.802Z,0.00
2018-09-10T03:36:45.818Z,0.00
2018-09-10T03:37:45.836Z,0.00
2018-09-10T03:38:45.855Z,0.00
2018-09-10T03:39:45.877Z,0.00
2018-09-10T03:40:45.896Z,0.00
2018-09-10T03:41:45.906Z,0.00
2018-09-10T03:42:45.926Z,0.00
2018-09-10T03:43:45.943Z,0.00
2018-09-10T03:44:45.962Z,0.00
2018-09-10T03:45:45.981Z,0.00
2018-09-10T03:46:45.998Z,0.00
2018-09-10T03:47:46.015Z,0.00
2018-09-10T03:48:46.034Z,0.00
2018-09-10T03:49:46.049Z,0.00
2018-09-10T03:50:46.067Z,0.00
2018-09-10T03:51:46.087Z,0.00
2018-09-10T03:52:46.101Z,0.00
2018-09-10T03:53:46.121Z,0.00
2018-09-10T03:54:46.142Z,0.00
2018-09-10T03:55:46.157Z,0.00
2018-09-10T03:56:46.175Z,0.00
2018-09-10T03:57:46.190Z,0.00
2018-09-10T03:58:46.206Z,0.00
2018-09-10T03:59:46.226Z,0.00
2018-09-10T04:00:46.244Z,0.00
2018-09-10T04:01:46.262Z,0.00
2018-09-10T04:02:46.277Z,0.00
2018-09-10T04:03:46.295Z,0.00
2018-09-10T04:04:46.312Z,0.00
2018-09-10T04:05:46.329Z,0.00
2018-09-10T04:06:46.346Z,0.00
2018-09-10T04:07:46.362Z,0.00
2018-09-10T04:08:46.380Z,0.00
2018-09-10T04:09:46.397Z,0.00
2018-09-10T04:10:46.419Z,0.00
2018-09-10T04:11:46.437Z,0.00
2018-09-10T04:12:46.452Z,0.00
2018-09-10T04:13:46.468Z,0.00
2018-09-10T04:14:46.490Z,0.00
2018-09-10T04:15:46.504Z,0.00
2018-09-10T04:16:46.523Z,0.00
2018-09-10T04:17:46.539Z,0.00
2018-09-10T04:18:46.556Z,0.00
2018-09-10T04:19:46.572Z,0.00
2018-09-10T04:20:46.590Z,0.00
2018-09-10T04:21:46.608Z,0.00
2018-09-10T04:22:46.623Z,0.00
2018-09-10T04:23:46.644Z,0.00
2018-09-10T04:24:46.663Z,0.00
2018-09-10T04:25:46.734Z,0.00
2018-09-10T04:26:46.697Z,0.00
2018-09-10T04:27:46.713Z,0.00
2018-09-10T04:28:46.730Z,0.00
2018-09-10T04:29:46.746Z,0.00
2018-09-10T04:30:46.769Z,0.00
2018-09-10T04:31:46.783Z,0.00
2018-09-10T04:32:46.799Z,0.00
2018-09-10T04:33:46.818Z,0.00
2018-09-10T04:34:46.837Z,0.00
2018-09-10T04:35:46.852Z,0.00
2018-09-10T04:36:46.869Z,0.00
2018-09-10T04:37:46.888Z,0.00
2018-09-10T04:38:46.905Z,0.00
2018-09-10T04:39:46.921Z,0.00
2018-09-10T04:40:46.938Z,0.00
2018-09-10T04:41:46.954Z,0.00
2018-09-10T04:42:46.973Z,0.00
2018-09-10T04:43:46.991Z,0.00
2018-09-10T04:44:47.010Z,4.00
2018-09-10T04:45:47.027Z,0.00
2018-09-10T04:46:47.044Z,0.00
2018-09-10T04:47:47.069Z,0.00
2018-09-10T04:48:47.080Z,0.00
2018-09-10T04:49:47.187Z,0.00
2018-09-10T04:50:47.115Z,4.00
2018-09-10T04:51:47.133Z,0.00
2018-09-10T04:52:47.147Z,0.00
2018-09-10T04:53:47.165Z,0.00
2018-09-10T04:54:47.186Z,4.00
2018-09-10T04:55:47.200Z,4.00
2018-09-10T04:56:47.218Z,0.00
2018-09-10T04:57:47.233Z,4.00
2018-09-10T04:58:47.250Z,4.00
2018-09-10T04:59:47.272Z,4.00
2018-09-10T05:00:47.289Z,8.00
2018-09-10T05:01:47.304Z,8.00
2018-09-10T05:02:47.324Z,8.00
2018-09-10T05:03:47.339Z,8.00
2018-09-10T05:04:47.358Z,8.00
2018-09-10T05:05:47.373Z,8.00
2018-09-10T05:06:47.394Z,8.00
2018-09-10T05:07:47.406Z,8.00
2018-09-10T05:08:47.424Z,8.00
2018-09-10T05:09:47.455Z,12.00
2018-09-10T05:10:47.461Z,12.00
2018-09-10T05:11:47.478Z,12.00
2018-09-10T05:12:47.493Z,12.00
2018-09-10T05:13:47.511Z,12.00
2018-09-10T05:14:47.527Z,16.00
2018-09-10T05:15:47.548Z,12.00
2018-09-10T05:16:47.562Z,16.00
2018-09-10T05:17:47.579Z,16.00
2018-09-10T05:18:47.598Z,20.00
2018-09-10T05:19:47.665Z,16.00
2018-09-10T05:20:47.635Z,16.00
2018-09-10T05:21:47.659Z,20.00
2018-09-10T05:22:47.669Z,20.00
2018-09-10T05:23:47.684Z,24.00
2018-09-10T05:24:47.700Z,24.00
2018-09-10T05:25:47.717Z,24.00
2018-09-10T05:26:47.736Z,24.00
2018-09-10T05:27:47.758Z,24.00
2018-09-10T05:28:47.769Z,24.00
2018-09-10T05:29:47.792Z,28.00
2018-09-10T05:30:47.807Z,28.00
2018-09-10T05:31:47.822Z,28.00
2018-09-10T05:32:47.840Z,32.00
2018-09-10T05:33:47.858Z,32.00
2018-09-10T05:34:47.874Z,32.00
2018-09-10T05:35:47.891Z,32.00
2018-09-10T05:36:47.910Z,32.00
2018-09-10T05:37:47.925Z,36.00
2018-09-10T05:38:47.944Z,36.00
2018-09-10T05:39:47.962Z,36.00
2018-09-10T05:40:47.975Z,36.00
2018-09-10T05:41:48.078Z,40.00
2018-09-10T05:42:48.011Z,36.00
2018-09-10T05:43:48.032Z,36.00
2018-09-10T05:44:48.047Z,36.00
2018-09-10T05:45:48.063Z,40.00
2018-09-10T05:46:48.082Z,40.00
2018-09-10T05:47:48.101Z,40.00
2018-09-10T05:48:48.114Z,44.00
2018-09-10T05:49:48.134Z,40.00
2018-09-10T05:50:48.152Z,44.00
2018-09-10T05:51:48.175Z,44.00
2018-09-10T05:52:48.185Z,44.00
2018-09-10T05:53:48.211Z,44.00
2018-09-10T05:54:48.223Z,48.00
2018-09-10T05:55:48.241Z,44.00
2018-09-10T05:56:48.255Z,48.00
2018-09-10T05:57:48.276Z,48.00
2018-09-10T05:58:48.290Z,44.00
2018-09-10T05:59:48.307Z,48.00
2018-09-10T06:00:48.324Z,48.00
2018-09-10T06:01:48.341Z,48.00
2018-09-10T06:02:48.370Z,48.00
2018-09-10T06:03:48.376Z,48.00
2018-09-10T06:04:48.394Z,48.00
2018-09-10T06:05:48.413Z,52.00
2018-09-10T06:06:48.429Z,52.00
2018-09-10T06:07:48.446Z,52.00
2018-09-10T06:08:48.541Z,56.00
2018-09-10T06:09:48.484Z,56.00
2018-09-10T06:10:48.498Z,56.00
2018-09-10T06:11:48.516Z,52.00
2018-09-10T06:12:48.533Z,56.00
2018-09-10T06:13:48.551Z,56.00
2018-09-10T06:14:48.569Z,56.00
2018-09-10T06:15:48.596Z,56.00
2018-09-10T06:16:48.642Z,60.00
2018-09-10T06:17:48.623Z,56.00
2018-09-10T06:18:48.637Z,60.00
2018-09-10T06:19:48.656Z,60.00
2018-09-10T06:20:48.673Z,60.00
2018-09-10T06:21:48.691Z,68.00
2018-09-10T06:22:48.707Z,64.00
2018-09-10T06:23:48.727Z,76.00
2018-09-10T06:24:48.741Z,88.00
2018-09-10T06:25:48.757Z,88.00
2018-09-10T06:26:48.777Z,92.00
2018-09-10T06:27:48.794Z,96.00
2018-09-10T06:28:48.810Z,96.00
2018-09-10T06:29:48.831Z,96.00
2018-09-10T06:30:48.845Z,96.00
2018-09-10T06:31:48.863Z,100.00
2018-09-10T06:32:48.882Z,100.00
2018-09-10T06:33:48.900Z,104.00
2018-09-10T06:34:48.916Z,104.00
2018-09-10T06:35:48.933Z,104.00
2018-09-10T06:36:48.950Z,108.00
2018-09-10T06:37:48.968Z,108.00
2018-09-10T06:38:48.988Z,108.00
2018-09-10T06:39:49.006Z,112.00
2018-09-10T06:40:49.022Z,112.00
2018-09-10T06:41:49.040Z,112.00
2018-09-10T06:42:49.058Z,112.00
2018-09-10T06:43:49.076Z,116.00
2018-09-10T06:44:49.091Z,116.00
2018-09-10T06:45:49.114Z,116.00
2018-09-10T06:46:49.128Z,116.00
2018-09-10T06:47:49.200Z,120.00
2018-09-10T06:48:49.162Z,120.00
2018-09-10T06:49:49.181Z,116.00
2018-09-10T06:50:49.203Z,84.00
2018-09-10T06:51:49.225Z,84.00
2018-09-10T06:52:49.232Z,76.00
2018-09-10T06:53:49.249Z,80.00
2018-09-10T06:54:49.268Z,76.00
2018-09-10T06:55:49.287Z,100.00
2018-09-10T06:56:49.303Z,88.00
2018-09-10T06:57:49.321Z,76.00
2018-09-10T06:58:49.339Z,80.00
2018-09-10T06:59:49.359Z,76.00
2018-09-10T07:00:49.376Z,80.00
2018-09-10T07:01:49.391Z,100.00
2018-09-10T07:02:49.411Z,128.00
2018-09-10T07:03:49.429Z,128.00
2018-09-10T07:04:49.451Z,132.00
2018-09-10T07:05:49.464Z,144.00
2018-09-10T07:06:49.482Z,144.00
2018-09-10T07:07:49.503Z,144.00
2018-09-10T07:08:49.516Z,148.00
2018-09-10T07:09:49.533Z,152.00
2018-09-10T07:10:49.559Z,148.00
2018-09-10T07:11:49.572Z,148.00
2018-09-10T07:12:49.629Z,152.00
2018-09-10T07:13:49.605Z,104.00
2018-09-10T07:14:49.624Z,116.00
2018-09-10T07:15:49.641Z,160.00
2018-09-10T07:16:49.662Z,164.00
2018-09-10T07:17:49.676Z,164.00
2018-09-10T07:18:49.765Z,168.00
2018-09-10T07:19:49.713Z,168.00
2018-09-10T07:20:49.732Z,168.00
2018-09-10T07:21:49.748Z,104.00
2018-09-10T07:22:49.770Z,164.00
2018-09-10T07:23:49.785Z,172.00
2018-09-10T07:24:49.803Z,176.00
2018-09-10T07:25:49.821Z,180.00
2018-09-10T07:26:49.838Z,180.00
2018-09-10T07:27:49.856Z,180.00
2018-09-10T07:28:49.874Z,184.00
2018-09-10T07:29:49.892Z,188.00
2018-09-10T07:30:49.908Z,192.00
2018-09-10T07:31:49.930Z,192.00
2018-09-10T07:32:49.948Z,196.00
2018-09-10T07:33:49.963Z,196.00
2018-09-10T07:34:49.986Z,200.00
2018-09-10T07:35:50.000Z,200.00
2018-09-10T07:36:50.016Z,200.00
2018-09-10T07:37:50.040Z,204.00
2018-09-10T07:38:50.054Z,208.00
2018-09-10T07:39:50.073Z,204.00
2018-09-10T07:40:50.089Z,208.00
2018-09-10T07:41:50.110Z,212.00
2018-09-10T07:42:50.126Z,212.00
2018-09-10T07:43:50.273Z,216.00
2018-09-10T07:44:50.165Z,216.00
2018-09-10T07:45:50.179Z,220.00
2018-09-10T07:46:50.201Z,220.00
2018-09-10T07:47:50.219Z,224.00
2018-09-10T07:48:50.283Z,224.00
2018-09-10T07:49:50.253Z,228.00
2018-09-10T07:50:50.271Z,232.00
2018-09-10T07:51:50.292Z,232.00
2018-09-10T07:52:50.307Z,236.00
2018-09-10T07:53:50.325Z,236.00
2018-09-10T07:54:50.346Z,236.00
2018-09-10T07:55:50.364Z,240.00
2018-09-10T07:56:50.379Z,244.00
2018-09-10T07:57:50.400Z,244.00
2018-09-10T07:58:50.419Z,248.00
2018-09-10T07:59:50.436Z,252.00
2018-09-10T08:00:50.483Z,252.00
2018-09-10T08:01:50.475Z,252.00
2018-09-10T08:02:50.512Z,260.00
2018-09-10T08:03:50.512Z,260.00
2018-09-10T08:04:50.529Z,264.00
2018-09-10T08:05:50.549Z,264.00
2018-09-10T08:06:50.566Z,268.00
2018-09-10T08:07:50.594Z,272.00
2018-09-10T08:08:50.601Z,276.00
2018-09-10T08:09:50.623Z,276.00
2018-09-10T08:10:50.639Z,280.00
2018-09-10T08:11:50.660Z,284.00
2018-09-10T08:12:50.677Z,284.00
2018-09-10T08:13:50.695Z,288.00
2018-09-10T08:14:50.715Z,292.00
2018-09-10T08:15:50.733Z,296.00
2018-09-10T08:16:50.750Z,300.00
2018-09-10T08:17:50.772Z,300.00
2018-09-10T08:18:50.789Z,308.00
2018-09-10T08:19:50.809Z,312.00
2018-09-10T08:20:50.828Z,316.00
2018-09-10T08:21:50.845Z,320.00
2018-09-10T08:22:50.864Z,324.00
2018-09-10T08:23:50.884Z,324.00
2018-09-10T08:24:50.902Z,328.00
2018-09-10T08:25:50.922Z,328.00
2018-09-10T08:26:50.939Z,332.00
2018-09-10T08:27:50.960Z,332.00
2018-09-10T08:28:50.978Z,336.00
2018-09-10T08:29:51.000Z,344.00
2018-09-10T08:30:51.017Z,348.00
2018-09-10T08:31:51.036Z,352.00
2018-09-10T08:32:51.055Z,356.00
2018-09-10T08:33:51.071Z,360.00
2018-09-10T08:34:51.091Z,364.00
2018-09-10T08:35:51.111Z,364.00
2018-09-10T08:36:51.131Z,372.00
2018-09-10T08:37:51.150Z,376.00
2018-09-10T08:38:51.167Z,380.00
2018-09-10T08:39:51.187Z,388.00
2018-09-10T08:40:51.231Z,396.00
2018-09-10T08:41:51.233Z,396.00
2018-09-10T08:42:51.315Z,400.00
2018-09-10T08:43:51.263Z,404.00
2018-09-10T08:44:51.384Z,408.00
2018-09-10T08:45:51.301Z,412.00
2018-09-10T08:46:51.360Z,416.00
2018-09-10T08:47:51.343Z,416.00
2018-09-10T08:48:51.361Z,420.00
2018-09-10T08:49:51.382Z,424.00
2018-09-10T08:50:51.400Z,428.00
2018-09-10T08:51:51.421Z,436.00
2018-09-10T08:52:51.438Z,440.00
2018-09-10T08:53:51.488Z,444.00
2018-09-10T08:54:51.933Z,444.00
2018-09-10T08:55:51.634Z,452.00
2018-09-10T08:56:51.516Z,460.00
2018-09-10T08:57:51.535Z,464.00
2018-09-10T08:58:51.556Z,468.00
2018-09-10T08:59:51.578Z,476.00
2018-09-10T09:00:51.594Z,480.00
2018-09-10T09:01:51.668Z,484.00
2018-09-10T09:02:51.638Z,488.00
2018-09-10T09:03:51.656Z,492.00
2018-09-10T09:04:51.675Z,504.00
2018-09-10T09:05:51.746Z,504.00
2018-09-10T09:06:51.716Z,512.00
2018-09-10T09:07:51.759Z,516.00
2018-09-10T09:08:51.754Z,520.00
2018-09-10T09:09:51.775Z,528.00
2018-09-10T09:10:51.794Z,536.00
2018-09-10T09:11:51.813Z,544.00
2018-09-10T09:12:51.834Z,548.00
2018-09-10T09:13:51.852Z,560.00
2018-09-10T09:14:51.873Z,568.00
2018-09-10T09:15:51.894Z,576.00
2018-09-10T09:16:51.914Z,584.00
2018-09-10T09:17:51.934Z,592.00
2018-09-10T09:18:51.954Z,600.00
2018-09-10T09:19:51.972Z,608.00
2018-09-10T09:20:51.992Z,616.00
2018-09-10T09:21:52.014Z,620.00
2018-09-10T09:22:52.034Z,636.00
2018-09-10T09:23:52.061Z,648.00
2018-09-10T09:24:52.073Z,660.00
2018-09-10T09:25:52.094Z,668.00
2018-09-10T09:26:52.117Z,680.00
2018-09-10T09:27:52.138Z,692.00
2018-09-10T09:28:52.158Z,700.00
2018-09-10T09:29:52.207Z,708.00
2018-09-10T09:30:52.196Z,720.00
2018-09-10T09:31:52.217Z,728.00
2018-09-10T09:32:52.237Z,740.00
2018-09-10T09:33:52.262Z,744.00
2018-09-10T09:34:52.279Z,760.00
2018-09-10T09:35:52.299Z,768.00
2018-09-10T09:36:52.320Z,780.00
2018-09-10T09:37:52.343Z,792.00
2018-09-10T09:38:52.360Z,800.00
2018-09-10T09:39:52.383Z,816.00
2018-09-10T09:40:52.404Z,828.00
2018-09-10T09:41:52.427Z,840.00
2018-09-10T09:42:52.449Z,852.00
2018-09-10T09:43:52.469Z,864.00
2018-09-10T09:44:52.492Z,872.00
2018-09-10T09:45:52.512Z,884.00
2018-09-10T09:46:52.533Z,892.00
2018-09-10T09:47:52.554Z,904.00
2018-09-10T09:48:52.574Z,912.00
2018-09-10T09:49:52.598Z,928.00
2018-09-10T09:50:52.618Z,932.00
2018-09-10T09:51:52.640Z,944.00
2018-09-10T09:52:52.662Z,956.00
2018-09-10T09:53:52.684Z,968.00
2018-09-10T09:54:52.703Z,976.00
2018-09-10T09:55:52.728Z,988.00
2018-09-10T09:56:52.748Z,1000.00
2018-09-10T09:57:52.771Z,1012.00
2018-09-10T09:58:52.794Z,1024.00
2018-09-10T09:59:52.814Z,1036.00
2018-09-10T10:00:52.835Z,1048.00
2018-09-10T10:01:52.856Z,1048.00
2018-09-10T10:02:52.879Z,1056.00
2018-09-10T10:03:52.900Z,1080.00
2018-09-10T10:04:52.923Z,1096.00
2018-09-10T10:05:52.946Z,1112.00
2018-09-10T10:06:52.966Z,1124.00
2018-09-10T10:07:52.987Z,1136.00
2018-09-10T10:08:53.019Z,1156.00
2018-09-10T10:09:53.033Z,1136.00
2018-09-10T10:10:53.055Z,1092.00
2018-09-10T10:11:53.209Z,936.00
2018-09-10T10:12:53.099Z,1016.00
2018-09-10T10:13:53.122Z,1136.00
2018-09-10T10:14:53.143Z,1264.00
2018-09-10T10:15:53.164Z,1232.00
2018-09-10T10:16:53.185Z,1056.00
2018-09-10T10:17:53.208Z,968.00
2018-09-10T10:18:53.230Z,912.00
2018-09-10T10:19:53.251Z,812.00
2018-09-10T10:20:53.275Z,804.00
2018-09-10T10:21:53.347Z,820.00
2018-09-10T10:22:53.320Z,952.00
2018-09-10T10:23:53.341Z,1152.00
2018-09-10T10:24:53.361Z,1236.00
2018-09-10T10:25:53.386Z,896.00
2018-09-10T10:26:53.408Z,504.00
2018-09-10T10:27:53.430Z,1140.00
2018-09-10T10:28:53.451Z,1348.00
2018-09-10T10:29:53.474Z,1320.00
2018-09-10T10:30:53.495Z,1340.00
2018-09-10T10:31:53.522Z,1336.00
2018-09-10T10:32:53.548Z,1340.00
2018-09-10T10:33:53.564Z,1388.00
2018-09-10T10:34:53.588Z,1380.00
2018-09-10T10:35:53.611Z,1380.00
2018-09-10T10:36:53.638Z,1404.00
2018-09-10T10:37:53.655Z,1340.00
2018-09-10T10:38:53.679Z,1032.00
2018-09-10T10:39:53.702Z,1044.00
2018-09-10T10:40:53.725Z,384.00
2018-09-10T10:41:53.751Z,468.00
2018-09-10T10:42:53.770Z,992.00
2018-09-10T10:43:53.794Z,1288.00
2018-09-10T10:44:53.815Z,1308.00
2018-09-10T10:45:53.841Z,1372.00
2018-09-10T10:46:53.866Z,1380.00
2018-09-10T10:47:53.890Z,1392.00
2018-09-10T10:48:53.909Z,1444.00
2018-09-10T10:49:53.935Z,1420.00
2018-09-10T10:50:53.957Z,1448.00
2018-09-10T10:51:53.981Z,1456.00
2018-09-10T10:52:54.002Z,1456.00
2018-09-10T10:53:54.063Z,1356.00
2018-09-10T10:54:54.048Z,1428.00
2018-09-10T10:55:54.075Z,1396.00
2018-09-10T10:56:54.094Z,1384.00
2018-09-10T10:57:54.122Z,1384.00
2018-09-10T10:58:54.145Z,1428.00
2018-09-10T10:59:54.167Z,1448.00
2018-09-10T11:00:54.188Z,1456.00
2018-09-10T11:01:54.211Z,1460.00
2018-09-10T11:02:54.237Z,1460.00
2018-09-10T11:03:54.258Z,1460.00
2018-09-10T11:04:54.284Z,1464.00
2018-09-10T11:05:54.312Z,1468.00
2018-09-10T11:06:54.334Z,1468.00
2018-09-10T11:07:54.358Z,1472.00
2018-09-10T11:08:54.376Z,1476.00
2018-09-10T11:09:54.400Z,1480.00
2018-09-10T11:10:54.425Z,1480.00
2018-09-10T11:11:54.450Z,1488.00
2018-09-10T11:12:54.473Z,1488.00
2018-09-10T11:13:54.493Z,1492.00
2018-09-10T11:14:54.518Z,1504.00
2018-09-10T11:15:54.544Z,1512.00
2018-09-10T11:16:54.566Z,1488.00
2018-09-10T11:17:54.591Z,1508.00
2018-09-10T11:18:54.615Z,1324.00
2018-09-10T11:19:54.640Z,1460.00
2018-09-10T11:20:54.641Z,1492.00
2018-09-10T11:21:54.686Z,1500.00
2018-09-10T11:22:54.710Z,1500.00
2018-09-10T11:23:54.733Z,1504.00
2018-09-10T11:24:54.760Z,1508.00
2018-09-10T11:25:54.782Z,1516.00
2018-09-10T11:26:54.809Z,1524.00
2018-09-10T11:27:54.833Z,1520.00
2018-09-10T11:28:54.858Z,1528.00
2018-09-10T11:29:54.880Z,1528.00
2018-09-10T11:30:54.905Z,1532.00
2018-09-10T11:31:54.930Z,1532.00
2018-09-10T11:32:54.953Z,1536.00
2018-09-10T11:33:54.978Z,1544.00
2018-09-10T11:34:55.001Z,1548.00
2018-09-10T11:35:55.028Z,1548.00
2018-09-10T11:36:55.051Z,1552.00
2018-09-10T11:37:55.078Z,1552.00
2018-09-10T11:38:55.104Z,1552.00
2018-09-10T11:39:55.128Z,1544.00
2018-09-10T11:40:55.156Z,1528.00
2018-09-10T11:41:55.172Z,1548.00
2018-09-10T11:42:55.199Z,1560.00
2018-09-10T11:43:55.224Z,1564.00
2018-09-10T11:44:55.246Z,1564.00
2018-09-10T11:45:55.270Z,1572.00
2018-09-10T11:46:55.294Z,1576.00
2018-09-10T11:47:55.319Z,1576.00
2018-09-10T11:48:55.341Z,1572.00
2018-09-10T11:49:55.367Z,1576.00
2018-09-10T11:50:55.393Z,1576.00
2018-09-10T11:51:55.417Z,1580.00
2018-09-10T11:52:55.440Z,1580.00
2018-09-10T11:53:55.463Z,1584.00
2018-09-10T11:54:55.491Z,1580.00
2018-09-10T11:55:55.513Z,1584.00
2018-09-10T11:56:55.537Z,1540.00
2018-09-10T11:57:55.564Z,1528.00
2018-09-10T11:58:55.585Z,1544.00
2018-09-10T11:59:55.612Z,1532.00
2018-09-10T12:00:55.633Z,1544.00
2018-09-10T12:01:55.684Z,1548.00
2018-09-10T12:02:55.684Z,1540.00
2018-09-10T12:03:55.708Z,1524.00
2018-09-10T12:04:55.729Z,1268.00
2018-09-10T12:05:55.756Z,1504.00
2018-09-10T12:06:55.779Z,1564.00
2018-09-10T12:07:55.804Z,1432.00
2018-09-10T12:08:55.831Z,1412.00
2018-09-10T12:09:55.855Z,1480.00
2018-09-10T12:10:55.875Z,1488.00
2018-09-10T12:11:55.899Z,1540.00
2018-09-10T12:12:55.924Z,1328.00
2018-09-10T12:13:55.947Z,1432.00
2018-09-10T12:14:55.973Z,1424.00
2018-09-10T12:15:55.997Z,1356.00
2018-09-10T12:16:56.020Z,1164.00
2018-09-10T12:17:56.045Z,828.00
2018-09-10T12:18:56.071Z,920.00
2018-09-10T12:19:56.101Z,984.00
2018-09-10T12:20:56.124Z,980.00
2018-09-10T12:21:56.143Z,1052.00
2018-09-10T12:22:56.169Z,704.00
2018-09-10T12:23:56.192Z,1156.00
2018-09-10T12:24:56.218Z,1380.00
2018-09-10T12:25:56.242Z,1452.00
2018-09-10T12:26:56.265Z,1508.00
2018-09-10T12:27:56.289Z,1520.00
2018-09-10T12:28:56.315Z,1556.00
2018-09-10T12:29:56.338Z,1560.00
2018-09-10T12:30:56.368Z,1564.00
2018-09-10T12:31:56.391Z,1512.00
2018-09-10T12:32:56.412Z,1560.00
2018-09-10T12:33:56.439Z,1596.00
2018-09-10T12:34:56.463Z,1596.00
2018-09-10T12:35:56.488Z,1612.00
2018-09-10T12:36:56.514Z,1564.00
2018-09-10T12:37:56.538Z,1572.00
2018-09-10T12:38:56.565Z,1548.00
2018-09-10T12:39:56.588Z,1528.00
2018-09-10T12:40:56.613Z,1532.00
2018-09-10T12:41:56.639Z,1592.00
2018-09-10T12:42:56.663Z,1660.00
2018-09-10T12:43:56.690Z,1684.00
2018-09-10T12:44:56.715Z,1692.00
2018-09-10T12:45:56.741Z,1680.00